createdAt,value
2019-01-02T00:00:40.521Z,1014.99
2019-01-02T00:01:40.443Z,1014.98
2019-01-02T00:02:40.387Z,1015.03
2019-01-02T00:03:40.327Z,1014.99
2019-01-02T00:04:40.276Z,1015.03
2019-01-02T00:05:40.243Z,1015.04
2019-01-02T00:06:40.161Z,1015.08
2019-01-02T00:07:40.102Z,1015.17
2019-01-02T00:08:40.051Z,1015.11
2019-01-02T00:09:39.988Z,1015.14
2019-01-02T00:10:39.956Z,1015.14
2019-01-02T00:11:39.876Z,1015.11
2019-01-02T00:12:39.813Z,1015.14
2019-01-02T00:13:39.767Z,1015.14
2019-01-02T00:14:39.706Z,1015.09
2019-01-02T00:15:39.674Z,1015.19
2019-01-02T00:16:39.587Z,1015.11
2019-01-02T00:17:39.540Z,1015.19
2019-01-02T00:18:39.480Z,1015.17
2019-01-02T00:19:39.425Z,1015.14
2019-01-02T00:20:39.389Z,1015.14
2019-01-02T00:21:39.309Z,1015.17
2019-01-02T00:22:39.258Z,1015.14
2019-01-02T00:23:39.194Z,1015.23
2019-01-02T00:24:39.141Z,1015.18
2019-01-02T00:25:39.108Z,1015.27
2019-01-02T00:26:39.025Z,1015.28
2019-01-02T00:27:38.969Z,1015.30
2019-01-02T00:28:38.916Z,1015.28
2019-01-02T00:29:38.859Z,1015.27
2019-01-02T00:30:38.824Z,1015.29
2019-01-02T00:31:38.744Z,1015.24
2019-01-02T00:32:38.690Z,1015.35
2019-01-02T00:33:38.629Z,1015.29
2019-01-02T00:34:38.576Z,1015.33
2019-01-02T00:35:38.542Z,1015.32
2019-01-02T00:36:38.464Z,1015.27
2019-01-02T00:37:38.403Z,1015.28
2019-01-02T00:38:38.350Z,1015.27
2019-01-02T00:39:38.289Z,1015.29
2019-01-02T00:40:38.257Z,1015.28
2019-01-02T00:41:38.184Z,1015.22
2019-01-02T00:42:38.119Z,1015.24
2019-01-02T00:43:38.068Z,1015.24
2019-01-02T00:44:38.008Z,1015.27
2019-01-02T00:45:37.976Z,1015.22
2019-01-02T00:46:37.899Z,1015.22
2019-01-02T00:47:37.833Z,1015.25
2019-01-02T00:48:37.782Z,1015.28
2019-01-02T00:49:37.727Z,1015.29
2019-01-02T00:50:37.693Z,1015.33
2019-01-02T00:51:37.612Z,1015.39
2019-01-02T00:52:37.556Z,1015.30
2019-01-02T00:53:37.501Z,1015.33
2019-01-02T00:54:37.441Z,1015.32
2019-01-02T00:55:37.410Z,1015.32
2019-01-02T00:56:37.330Z,1015.33
2019-01-02T00:57:37.275Z,1015.36
2019-01-02T00:58:37.217Z,1015.35
2019-01-02T00:59:37.164Z,1015.24
2019-01-02T01:00:37.131Z,1015.21
2019-01-02T01:01:37.045Z,1015.30
2019-01-02T01:02:36.990Z,1015.23
2019-01-02T01:03:36.935Z,1015.26
2019-01-02T01:04:36.879Z,1015.24
2019-01-02T01:05:36.844Z,1015.28
2019-01-02T01:06:36.764Z,1015.37
2019-01-02T01:07:36.712Z,1015.34
2019-01-02T01:08:36.651Z,1015.35
2019-01-02T01:09:36.594Z,1015.47
2019-01-02T01:10:36.563Z,1015.43
2019-01-02T01:11:36.477Z,1015.37
2019-01-02T01:12:36.424Z,1015.40
2019-01-02T01:13:36.373Z,1015.39
2019-01-02T01:14:36.317Z,1015.33
2019-01-02T01:15:36.278Z,1015.27
2019-01-02T01:16:36.198Z,1015.45
2019-01-02T01:17:36.143Z,1015.41
2019-01-02T01:18:36.086Z,1015.37
2019-01-02T01:19:36.026Z,1015.42
2019-01-02T01:20:35.997Z,1015.49
2019-01-02T01:21:35.918Z,1015.54
2019-01-02T01:22:35.858Z,1015.55
2019-01-02T01:23:35.807Z,1015.60
2019-01-02T01:24:35.747Z,1015.59
2019-01-02T01:25:35.714Z,1015.62
2019-01-02T01:26:35.632Z,1015.64
2019-01-02T01:27:35.579Z,1015.67
2019-01-02T01:28:35.517Z,1015.64
2019-01-02T01:29:35.462Z,1015.56
2019-01-02T01:30:35.430Z,1015.57
2019-01-02T01:31:35.347Z,1015.66
2019-01-02T01:32:35.292Z,1015.60
2019-01-02T01:33:35.236Z,1015.65
2019-01-02T01:34:35.181Z,1015.61
2019-01-02T01:35:35.145Z,1015.73
2019-01-02T01:36:35.066Z,1015.67
2019-01-02T01:37:35.011Z,1015.68
2019-01-02T01:38:34.952Z,1015.71
2019-01-02T01:39:34.896Z,1015.72
2019-01-02T01:40:34.860Z,1015.72
2019-01-02T01:41:34.783Z,1015.75
2019-01-02T01:42:34.725Z,1015.73
2019-01-02T01:43:34.670Z,1015.76
2019-01-02T01:44:34.611Z,1015.77
2019-01-02T01:45:34.580Z,1015.78
2019-01-02T01:46:34.500Z,1015.71
2019-01-02T01:47:34.445Z,1015.67
2019-01-02T01:48:34.384Z,1015.79
2019-01-02T01:49:34.330Z,1015.83
2019-01-02T01:50:34.295Z,1015.85
2019-01-02T01:51:34.218Z,1015.82
2019-01-02T01:52:34.162Z,1015.84
2019-01-02T01:53:34.100Z,1015.83
2019-01-02T01:54:34.045Z,1015.88
2019-01-02T01:55:34.019Z,1015.82
2019-01-02T01:56:33.940Z,1015.83
2019-01-02T01:57:33.875Z,1015.81
2019-01-02T01:58:33.820Z,1015.91
2019-01-02T01:59:33.760Z,1015.96
2019-01-02T02:00:33.734Z,1015.91
2019-01-02T02:01:33.653Z,1015.92
2019-01-02T02:02:33.590Z,1015.91
2019-01-02T02:03:33.538Z,1015.88
2019-01-02T02:04:33.480Z,1015.92
2019-01-02T02:05:33.443Z,1015.86
2019-01-02T02:06:33.365Z,1015.87
2019-01-02T02:07:33.311Z,1015.79
2019-01-02T02:08:33.253Z,1015.72
2019-01-02T02:09:33.194Z,1015.80
2019-01-02T02:10:33.183Z,1015.94
2019-01-02T02:11:33.080Z,1015.88
2019-01-02T02:12:33.023Z,1015.91
2019-01-02T02:13:32.968Z,1015.92
2019-01-02T02:14:32.913Z,1015.91
2019-01-02T02:15:32.855Z,1015.85
2019-01-02T02:16:32.823Z,1015.89
2019-01-02T02:17:32.743Z,1015.90
2019-01-02T02:18:32.691Z,1015.87
2019-01-02T02:19:32.628Z,1015.85
2019-01-02T02:20:32.568Z,1015.90
2019-01-02T02:21:32.538Z,1015.90
2019-01-02T02:22:32.458Z,1015.92
2019-01-02T02:23:32.399Z,1015.94
2019-01-02T02:24:32.348Z,1015.94
2019-01-02T02:25:32.291Z,1015.92
2019-01-02T02:26:32.259Z,1015.98
2019-01-02T02:27:32.173Z,1015.99
2019-01-02T02:28:32.118Z,1015.91
2019-01-02T02:29:32.062Z,1015.93
2019-01-02T02:30:32.003Z,1015.97
2019-01-02T02:31:31.966Z,1015.87
2019-01-02T02:32:31.888Z,1016.00
2019-01-02T02:33:31.835Z,1015.94
2019-01-02T02:34:31.777Z,1015.95
2019-01-02T02:35:31.719Z,1015.87
2019-01-02T02:36:31.686Z,1015.98
2019-01-02T02:37:31.606Z,1015.97
2019-01-02T02:38:31.547Z,1016.00
2019-01-02T02:39:31.492Z,1016.01
2019-01-02T02:40:31.442Z,1016.02
2019-01-02T02:41:31.401Z,1016.09
2019-01-02T02:42:31.322Z,1016.07
2019-01-02T02:43:31.267Z,1016.05
2019-01-02T02:44:31.207Z,1016.07
2019-01-02T02:45:31.150Z,1016.11
2019-01-02T02:46:31.121Z,1016.05
2019-01-02T02:47:31.041Z,1016.16
2019-01-02T02:48:30.981Z,1016.15
2019-01-02T02:49:30.925Z,1016.17
2019-01-02T02:50:30.873Z,1016.19
2019-01-02T02:51:30.830Z,1016.18
2019-01-02T02:52:30.755Z,1016.31
2019-01-02T02:53:30.700Z,1016.32
2019-01-02T02:54:30.641Z,1016.29
2019-01-02T02:55:30.594Z,1016.24
2019-01-02T02:56:30.546Z,1016.23
2019-01-02T02:57:30.471Z,1016.22
2019-01-02T02:58:30.415Z,1016.19
2019-01-02T02:59:30.358Z,1016.23
2019-01-02T03:00:30.300Z,1016.23
2019-01-02T03:01:30.272Z,1016.32
2019-01-02T03:02:30.249Z,1016.34
2019-01-02T03:03:30.134Z,1016.35
2019-01-02T03:04:30.074Z,1016.36
2019-01-02T03:05:30.019Z,1016.33
2019-01-02T03:06:29.985Z,1016.36
2019-01-02T03:07:29.900Z,1016.42
2019-01-02T03:08:29.849Z,1016.32
2019-01-02T03:09:29.791Z,1016.35
2019-01-02T03:10:29.733Z,1016.37
2019-01-02T03:11:29.699Z,1016.33
2019-01-02T03:12:29.619Z,1016.39
2019-01-02T03:13:29.562Z,1016.42
2019-01-02T03:14:29.509Z,1016.48
2019-01-02T03:15:29.448Z,1016.49
2019-01-02T03:16:29.417Z,1016.47
2019-01-02T03:17:29.342Z,1016.36
2019-01-02T03:18:29.284Z,1016.42
2019-01-02T03:19:29.223Z,1016.44
2019-01-02T03:20:29.166Z,1016.45
2019-01-02T03:21:29.144Z,1016.47
2019-01-02T03:22:29.052Z,1016.46
2019-01-02T03:23:28.993Z,1016.57
2019-01-02T03:24:28.942Z,1016.57
2019-01-02T03:25:28.882Z,1016.54
2019-01-02T03:26:28.847Z,1016.57
2019-01-02T03:27:28.769Z,1016.54
2019-01-02T03:28:28.713Z,1016.55
2019-01-02T03:29:28.661Z,1016.52
2019-01-02T03:30:28.616Z,1016.61
2019-01-02T03:31:28.567Z,1016.59
2019-01-02T03:32:28.482Z,1016.69
2019-01-02T03:33:28.432Z,1016.68
2019-01-02T03:34:28.423Z,1016.68
2019-01-02T03:35:28.316Z,1016.70
2019-01-02T03:36:28.285Z,1016.70
2019-01-02T03:37:28.203Z,1016.65
2019-01-02T03:38:28.146Z,1016.64
2019-01-02T03:39:28.087Z,1016.64
2019-01-02T03:40:28.031Z,1016.66
2019-01-02T03:41:27.997Z,1016.63
2019-01-02T03:42:27.917Z,1016.64
2019-01-02T03:43:27.861Z,1016.69
2019-01-02T03:44:27.804Z,1016.71
2019-01-02T03:45:27.746Z,1016.65
2019-01-02T03:46:27.715Z,1016.65
2019-01-02T03:47:27.632Z,1016.66
2019-01-02T03:48:27.577Z,1016.67
2019-01-02T03:49:27.522Z,1016.66
2019-01-02T03:50:27.466Z,1016.67
2019-01-02T03:51:27.431Z,1016.69
2019-01-02T03:52:27.351Z,1016.74
2019-01-02T03:53:27.296Z,1016.79
2019-01-02T03:54:27.244Z,1016.71
2019-01-02T03:55:27.183Z,1016.75
2019-01-02T03:56:27.151Z,1016.72
2019-01-02T03:57:27.065Z,1016.73
2019-01-02T03:58:27.013Z,1016.76
2019-01-02T03:59:26.955Z,1016.78
2019-01-02T04:00:26.896Z,1016.75
2019-01-02T04:01:26.864Z,1016.79
2019-01-02T04:02:26.786Z,1016.88
2019-01-02T04:03:26.732Z,1016.86
2019-01-02T04:04:26.672Z,1016.82
2019-01-02T04:05:26.614Z,1016.88
2019-01-02T04:06:26.583Z,1016.84
2019-01-02T04:07:26.500Z,1016.93
2019-01-02T04:08:26.444Z,1016.89
2019-01-02T04:09:26.389Z,1016.92
2019-01-02T04:10:26.333Z,1016.86
2019-01-02T04:11:26.298Z,1016.92
2019-01-02T04:12:26.219Z,1016.93
2019-01-02T04:13:26.164Z,1016.85
2019-01-02T04:14:26.108Z,1016.85
2019-01-02T04:15:26.048Z,1016.87
2019-01-02T04:16:26.017Z,1016.81
2019-01-02T04:17:25.938Z,1016.83
2019-01-02T04:18:25.874Z,1016.83
2019-01-02T04:19:25.823Z,1016.78
2019-01-02T04:20:25.771Z,1016.74
2019-01-02T04:21:25.732Z,1016.82
2019-01-02T04:22:25.655Z,1016.80
2019-01-02T04:23:25.598Z,1016.84
2019-01-02T04:24:25.539Z,1016.80
2019-01-02T04:25:25.483Z,1016.77
2019-01-02T04:26:25.456Z,1016.76
2019-01-02T04:27:25.372Z,1016.83
2019-01-02T04:28:25.316Z,1016.72
2019-01-02T04:29:25.280Z,1016.79
2019-01-02T04:30:25.201Z,1016.76
2019-01-02T04:31:25.167Z,1016.81
2019-01-02T04:32:25.088Z,1016.80
2019-01-02T04:33:25.032Z,1016.81
2019-01-02T04:34:24.976Z,1016.85
2019-01-02T04:35:24.921Z,1016.84
2019-01-02T04:36:24.891Z,1016.83
2019-01-02T04:37:24.806Z,1016.74
2019-01-02T04:38:24.751Z,1016.81
2019-01-02T04:39:24.693Z,1016.75
2019-01-02T04:40:24.637Z,1016.76
2019-01-02T04:41:24.604Z,1016.73
2019-01-02T04:42:24.525Z,1016.80
2019-01-02T04:43:24.465Z,1016.76
2019-01-02T04:44:24.411Z,1016.77
2019-01-02T04:45:24.355Z,1016.80
2019-01-02T04:46:24.319Z,1016.82
2019-01-02T04:47:24.240Z,1016.82
2019-01-02T04:48:24.188Z,1016.77
2019-01-02T04:49:24.130Z,1016.80
2019-01-02T04:50:24.072Z,1016.81
2019-01-02T04:51:24.042Z,1016.81
2019-01-02T04:52:23.959Z,1016.81
2019-01-02T04:53:23.897Z,1016.78
2019-01-02T04:54:23.844Z,1016.79
2019-01-02T04:55:23.790Z,1016.81
2019-01-02T04:56:23.757Z,1016.74
2019-01-02T04:57:23.676Z,1016.78
2019-01-02T04:58:23.620Z,1016.78
2019-01-02T04:59:23.560Z,1016.78
2019-01-02T05:00:23.500Z,1016.84
2019-01-02T05:01:23.469Z,1016.74
2019-01-02T05:02:23.394Z,1016.75
2019-01-02T05:03:23.334Z,1016.83
2019-01-02T05:04:23.278Z,1016.81
2019-01-02T05:05:23.223Z,1016.85
2019-01-02T05:06:23.192Z,1016.80
2019-01-02T05:07:23.112Z,1016.92
2019-01-02T05:08:23.053Z,1016.93
2019-01-02T05:09:22.999Z,1016.89
2019-01-02T05:10:22.939Z,1016.89
2019-01-02T05:11:22.906Z,1016.89
2019-01-02T05:12:22.831Z,1016.90
2019-01-02T05:13:22.768Z,1016.89
2019-01-02T05:14:22.712Z,1016.93
2019-01-02T05:15:22.658Z,1016.98
2019-01-02T05:16:22.621Z,1016.96
2019-01-02T05:17:22.542Z,1016.97
2019-01-02T05:18:22.487Z,1017.03
2019-01-02T05:19:22.432Z,1017.01
2019-01-02T05:20:22.372Z,1017.06
2019-01-02T05:21:22.341Z,1017.07
2019-01-02T05:22:22.260Z,1017.08
2019-01-02T05:23:22.203Z,1017.10
2019-01-02T05:24:22.146Z,1017.06
2019-01-02T05:25:22.092Z,1017.06
2019-01-02T05:26:22.055Z,1017.08
2019-01-02T05:27:21.976Z,1017.10
2019-01-02T05:28:21.921Z,1017.19
2019-01-02T05:29:21.863Z,1017.23
2019-01-02T05:30:21.806Z,1017.28
2019-01-02T05:31:21.776Z,1017.33
2019-01-02T05:32:21.691Z,1017.34
2019-01-02T05:33:21.640Z,1017.33
2019-01-02T05:34:21.577Z,1017.16
2019-01-02T05:35:21.521Z,1017.24
2019-01-02T05:36:21.490Z,1017.30
2019-01-02T05:37:21.414Z,1017.33
2019-01-02T05:38:21.351Z,1017.35
2019-01-02T05:39:21.295Z,1017.34
2019-01-02T05:40:21.241Z,1017.29
2019-01-02T05:41:21.183Z,1017.33
2019-01-02T05:42:21.149Z,1017.30
2019-01-02T05:43:21.070Z,1017.32
2019-01-02T05:44:21.023Z,1017.31
2019-01-02T05:45:20.959Z,1017.34
2019-01-02T05:46:20.902Z,1017.37
2019-01-02T05:47:20.852Z,1017.39
2019-01-02T05:48:20.784Z,1017.42
2019-01-02T05:49:20.729Z,1017.44
2019-01-02T05:50:20.676Z,1017.43
2019-01-02T05:51:20.615Z,1017.45
2019-01-02T05:52:20.663Z,1017.47
2019-01-02T05:53:20.509Z,1017.49
2019-01-02T05:54:20.450Z,1017.45
2019-01-02T05:55:20.391Z,1017.49
2019-01-02T05:56:20.336Z,1017.47
2019-01-02T05:57:20.298Z,1017.48
2019-01-02T05:58:20.218Z,1017.50
2019-01-02T05:59:20.163Z,1017.54
2019-01-02T06:00:20.107Z,1017.54
2019-01-02T06:01:20.048Z,1017.52
2019-01-02T06:02:20.017Z,1017.53
2019-01-02T06:03:19.934Z,1017.56
2019-01-02T06:04:19.882Z,1017.48
2019-01-02T06:05:19.822Z,1017.49
2019-01-02T06:06:19.764Z,1017.50
2019-01-02T06:07:19.728Z,1017.52
2019-01-02T06:08:19.656Z,1017.47
2019-01-02T06:09:19.593Z,1017.50
2019-01-02T06:10:19.534Z,1017.52
2019-01-02T06:11:19.485Z,1017.55
2019-01-02T06:12:19.447Z,1017.58
2019-01-02T06:13:19.367Z,1017.57
2019-01-02T06:14:19.312Z,1017.64
2019-01-02T06:15:19.256Z,1017.65
2019-01-02T06:16:19.197Z,1017.61
2019-01-02T06:17:19.167Z,1017.72
2019-01-02T06:18:19.091Z,1017.67
2019-01-02T06:19:19.026Z,1017.65
2019-01-02T06:20:18.971Z,1017.64
2019-01-02T06:21:18.919Z,1017.62
2019-01-02T06:22:18.882Z,1017.66
2019-01-02T06:23:18.802Z,1017.69
2019-01-02T06:24:18.742Z,1017.69
2019-01-02T06:25:18.684Z,1017.73
2019-01-02T06:26:18.632Z,1017.79
2019-01-02T06:27:18.596Z,1017.75
2019-01-02T06:28:18.518Z,1017.73
2019-01-02T06:29:18.462Z,1017.68
2019-01-02T06:30:18.406Z,1017.79
2019-01-02T06:31:18.347Z,1017.73
2019-01-02T06:32:18.316Z,1017.74
2019-01-02T06:33:18.238Z,1017.75
2019-01-02T06:34:18.182Z,1017.73
2019-01-02T06:35:18.117Z,1017.73
2019-01-02T06:36:18.063Z,1017.72
2019-01-02T06:37:18.031Z,1017.71
2019-01-02T06:38:17.952Z,1017.72
2019-01-02T06:39:17.895Z,1017.74
2019-01-02T06:40:17.837Z,1017.71
2019-01-02T06:41:17.783Z,1017.73
2019-01-02T06:42:17.745Z,1017.76
2019-01-02T06:43:17.669Z,1017.77
2019-01-02T06:44:17.613Z,1017.73
2019-01-02T06:45:17.552Z,1017.77
2019-01-02T06:46:17.501Z,1017.76
2019-01-02T06:47:17.466Z,1017.76
2019-01-02T06:48:17.383Z,1017.73
2019-01-02T06:49:17.330Z,1017.77
2019-01-02T06:50:17.272Z,1017.85
2019-01-02T06:51:17.215Z,1017.93
2019-01-02T06:52:17.183Z,1017.90
2019-01-02T06:53:17.101Z,1017.93
2019-01-02T06:54:17.045Z,1017.94
2019-01-02T06:55:16.989Z,1018.01
2019-01-02T06:56:16.931Z,1018.00
2019-01-02T06:57:16.899Z,1018.00
2019-01-02T06:58:16.820Z,1018.04
2019-01-02T06:59:16.760Z,1018.04
2019-01-02T07:00:16.706Z,1018.09
2019-01-02T07:01:16.645Z,1018.11
2019-01-02T07:02:16.614Z,1018.10
2019-01-02T07:03:16.534Z,1018.13
2019-01-02T07:04:16.479Z,1018.11
2019-01-02T07:05:16.426Z,1018.13
2019-01-02T07:06:16.366Z,1018.20
2019-01-02T07:07:16.357Z,1018.17
2019-01-02T07:08:16.253Z,1018.21
2019-01-02T07:09:16.194Z,1018.22
2019-01-02T07:10:16.140Z,1018.24
2019-01-02T07:11:16.083Z,1018.25
2019-01-02T07:12:16.021Z,1018.23
2019-01-02T07:13:15.998Z,1018.31
2019-01-02T07:14:15.913Z,1018.30
2019-01-02T07:15:15.853Z,1018.30
2019-01-02T07:16:15.798Z,1018.32
2019-01-02T07:17:15.745Z,1018.39
2019-01-02T07:18:15.712Z,1018.35
2019-01-02T07:19:15.627Z,1018.41
2019-01-02T07:20:15.574Z,1018.41
2019-01-02T07:21:15.517Z,1018.42
2019-01-02T07:22:15.459Z,1018.46
2019-01-02T07:23:15.424Z,1018.52
2019-01-02T07:24:15.347Z,1018.49
2019-01-02T07:25:15.294Z,1018.53
2019-01-02T07:26:15.232Z,1018.54
2019-01-02T07:27:15.177Z,1018.54
2019-01-02T07:28:15.143Z,1018.59
2019-01-02T07:29:15.066Z,1018.62
2019-01-02T07:30:15.008Z,1018.63
2019-01-02T07:31:14.951Z,1018.65
2019-01-02T07:32:14.901Z,1018.66
2019-01-02T07:33:14.862Z,1018.71
2019-01-02T07:34:14.784Z,1018.71
2019-01-02T07:35:14.732Z,1018.70
2019-01-02T07:36:14.670Z,1018.73
2019-01-02T07:37:14.609Z,1018.76
2019-01-02T07:38:14.568Z,1018.76
2019-01-02T07:39:14.501Z,1018.79
2019-01-02T07:40:14.705Z,1018.86
2019-01-02T07:41:14.386Z,1018.87
2019-01-02T07:42:14.321Z,1018.86
2019-01-02T07:43:14.295Z,1018.85
2019-01-02T07:44:14.218Z,1018.94
2019-01-02T07:45:14.161Z,1018.91
2019-01-02T07:46:14.110Z,1018.92
2019-01-02T07:47:14.046Z,1018.94
2019-01-02T07:48:14.013Z,1018.99
2019-01-02T07:49:13.939Z,1019.07
2019-01-02T07:50:13.876Z,1019.14
2019-01-02T07:51:13.820Z,1019.07
2019-01-02T07:52:13.764Z,1019.13
2019-01-02T07:53:13.727Z,1019.13
2019-01-02T07:54:13.693Z,1019.19
2019-01-02T07:55:13.597Z,1019.22
2019-01-02T07:56:13.539Z,1019.15
2019-01-02T07:57:13.483Z,1019.17
2019-01-02T07:58:13.439Z,1019.23
2019-01-02T07:59:13.361Z,1019.22
2019-01-02T08:00:13.316Z,1019.27
2019-01-02T08:01:13.258Z,1019.22
2019-01-02T08:02:13.205Z,1019.30
2019-01-02T08:03:13.167Z,1019.26
2019-01-02T08:04:13.082Z,1019.28
2019-01-02T08:05:13.031Z,1019.30
2019-01-02T08:06:12.973Z,1019.33
2019-01-02T08:07:12.916Z,1019.35
2019-01-02T08:08:12.914Z,1019.35
2019-01-02T08:09:12.802Z,1019.35
2019-01-02T08:10:12.736Z,1019.36
2019-01-02T08:11:12.679Z,1019.42
2019-01-02T08:12:12.636Z,1019.35
2019-01-02T08:13:12.577Z,1019.36
2019-01-02T08:14:12.545Z,1019.34
2019-01-02T08:15:12.465Z,1019.33
2019-01-02T08:16:12.410Z,1019.35
2019-01-02T08:17:12.350Z,1019.44
2019-01-02T08:18:12.295Z,1019.46
2019-01-02T08:19:12.262Z,1019.40
2019-01-02T08:20:12.180Z,1019.57
2019-01-02T08:21:12.127Z,1019.52
2019-01-02T08:22:12.054Z,1019.56
2019-01-02T08:23:12.014Z,1019.62
2019-01-02T08:24:11.979Z,1019.63
2019-01-02T08:25:12.993Z,1019.71
2019-01-02T08:26:11.841Z,1019.68
2019-01-02T08:27:11.784Z,1019.72
2019-01-02T08:28:12.289Z,1019.71
2019-01-02T08:29:11.697Z,1019.71
2019-01-02T08:30:11.619Z,1019.71
2019-01-02T08:31:11.559Z,1019.72
2019-01-02T08:32:11.504Z,1019.78
2019-01-02T08:33:11.448Z,1019.79
2019-01-02T08:34:11.419Z,1019.86
2019-01-02T08:35:11.333Z,1019.81
2019-01-02T08:36:11.279Z,1019.82
2019-01-02T08:37:11.224Z,1019.83
2019-01-02T08:38:11.163Z,1019.89
2019-01-02T08:39:11.132Z,1019.93
2019-01-02T08:40:11.054Z,1019.87
2019-01-02T08:41:10.995Z,1019.91
2019-01-02T08:42:10.933Z,1019.92
2019-01-02T08:43:10.885Z,1019.94
2019-01-02T08:44:10.851Z,1019.94
2019-01-02T08:45:10.776Z,1020.02
2019-01-02T08:46:10.713Z,1020.02
2019-01-02T08:47:10.656Z,1020.04
2019-01-02T08:48:10.601Z,1020.07
2019-01-02T08:49:10.570Z,1020.08
2019-01-02T08:50:10.489Z,1020.12
2019-01-02T08:51:10.418Z,1020.11
2019-01-02T08:52:10.371Z,1020.08
2019-01-02T08:53:10.315Z,1020.15
2019-01-02T08:54:10.288Z,1020.11
2019-01-02T08:55:10.208Z,1020.14
2019-01-02T08:56:10.141Z,1020.15
2019-01-02T08:57:10.094Z,1020.13
2019-01-02T08:58:10.034Z,1020.15
2019-01-02T08:59:10.010Z,1020.24
2019-01-02T09:00:09.950Z,1020.16
2019-01-02T09:01:09.868Z,1020.25
2019-01-02T09:02:09.809Z,1020.27
2019-01-02T09:03:09.752Z,1020.29
2019-01-02T09:04:09.694Z,1020.29
2019-01-02T09:05:09.649Z,1020.38
2019-01-02T09:06:09.583Z,1020.38
2019-01-02T09:07:09.524Z,1020.36
2019-01-02T09:08:09.469Z,1020.33
2019-01-02T09:09:10.091Z,1020.37
2019-01-02T09:10:09.381Z,1020.37
2019-01-02T09:11:09.301Z,1020.41
2019-01-02T09:12:09.242Z,1020.43
2019-01-02T09:13:09.185Z,1020.44
2019-01-02T09:14:09.132Z,1020.45
2019-01-02T09:15:10.069Z,1020.49
2019-01-02T09:16:09.021Z,1020.47
2019-01-02T09:17:08.966Z,1020.45
2019-01-02T09:18:08.907Z,1020.53
2019-01-02T09:19:08.869Z,1020.48
2019-01-02T09:20:08.816Z,1020.50
2019-01-02T09:21:08.740Z,1020.54
2019-01-02T09:22:08.680Z,1020.55
2019-01-02T09:23:08.621Z,1020.58
2019-01-02T09:24:08.571Z,1020.56
2019-01-02T09:25:08.536Z,1020.55
2019-01-02T09:26:08.455Z,1020.54
2019-01-02T09:27:08.402Z,1020.54
2019-01-02T09:28:08.351Z,1020.60
2019-01-02T09:29:08.299Z,1020.63
2019-01-02T09:30:08.254Z,1020.67
2019-01-02T09:31:08.175Z,1020.63
2019-01-02T09:32:08.117Z,1020.67
2019-01-02T09:33:08.059Z,1020.71
2019-01-02T09:34:08.010Z,1020.74
2019-01-02T09:35:07.969Z,1020.77
2019-01-02T09:36:07.894Z,1020.76
2019-01-02T09:37:07.834Z,1020.87
2019-01-02T09:38:07.798Z,1020.80
2019-01-02T09:39:07.723Z,1020.85
2019-01-02T09:40:07.711Z,1020.90
2019-01-02T09:41:07.608Z,1020.91
2019-01-02T09:42:07.561Z,1020.91
2019-01-02T09:43:07.502Z,1020.93
2019-01-02T09:44:07.442Z,1020.97
2019-01-02T09:45:07.387Z,1020.97
2019-01-02T09:46:07.358Z,1020.92
2019-01-02T09:47:07.272Z,1020.94
2019-01-02T09:48:07.273Z,1020.95
2019-01-02T09:49:07.163Z,1020.91
2019-01-02T09:50:07.162Z,1020.93
2019-01-02T09:51:07.074Z,1020.92
2019-01-02T09:52:06.992Z,1020.93
2019-01-02T09:53:06.935Z,1021.00
2019-01-02T09:54:06.899Z,1021.02
2019-01-02T09:55:06.833Z,1021.02
2019-01-02T09:56:06.787Z,1020.97
2019-01-02T09:57:06.777Z,1021.02
2019-01-02T09:58:06.728Z,1021.02
2019-01-02T09:59:06.850Z,1021.00
2019-01-02T10:00:06.772Z,1021.03
2019-01-02T10:01:06.508Z,1021.01
2019-01-02T10:02:06.440Z,1020.99
2019-01-02T10:03:06.380Z,1021.05
2019-01-02T10:04:06.318Z,1020.98
2019-01-02T10:05:06.265Z,1021.04
2019-01-02T10:06:06.231Z,1021.04
2019-01-02T10:07:06.148Z,1020.97
2019-01-02T10:08:06.092Z,1021.05
2019-01-02T10:09:06.037Z,1021.04
2019-01-02T10:10:05.981Z,1021.17
2019-01-02T10:11:05.951Z,1021.17
2019-01-02T10:12:05.871Z,1021.04
2019-01-02T10:13:05.817Z,1021.09
2019-01-02T10:14:05.757Z,1021.10
2019-01-02T10:15:05.705Z,1021.10
2019-01-02T10:16:05.671Z,1021.05
2019-01-02T10:17:05.590Z,1021.12
2019-01-02T10:18:05.536Z,1021.12
2019-01-02T10:19:05.478Z,1021.14
2019-01-02T10:20:05.423Z,1021.12
2019-01-02T10:21:05.394Z,1021.10
2019-01-02T10:22:05.311Z,1021.17
2019-01-02T10:23:05.257Z,1021.19
2019-01-02T10:24:05.202Z,1021.10
2019-01-02T10:25:05.143Z,1021.13
2019-01-02T10:26:05.121Z,1021.16
2019-01-02T10:27:05.081Z,1021.12
2019-01-02T10:28:04.976Z,1021.16
2019-01-02T10:29:04.921Z,1021.14
2019-01-02T10:30:04.862Z,1021.18
2019-01-02T10:31:04.802Z,1021.11
2019-01-02T10:32:04.781Z,1021.16
2019-01-02T10:33:04.691Z,1021.16
2019-01-02T10:34:04.636Z,1021.05
2019-01-02T10:35:04.584Z,1021.14
2019-01-02T10:36:04.528Z,1021.22
2019-01-02T10:37:04.494Z,1021.18
2019-01-02T10:38:04.410Z,1021.15
2019-01-02T10:39:04.360Z,1021.18
2019-01-02T10:40:04.299Z,1021.12
2019-01-02T10:41:04.244Z,1021.12
2019-01-02T10:42:04.213Z,1021.14
2019-01-02T10:43:04.134Z,1021.14
2019-01-02T10:44:04.082Z,1021.13
2019-01-02T10:45:04.019Z,1021.19
2019-01-02T10:46:03.963Z,1021.15
2019-01-02T10:47:03.931Z,1021.19
2019-01-02T10:48:03.853Z,1021.34
2019-01-02T10:49:03.797Z,1021.23
2019-01-02T10:50:03.741Z,1021.34
2019-01-02T10:51:03.682Z,1021.35
2019-01-02T10:52:03.660Z,1021.31
2019-01-02T10:53:03.571Z,1021.31
2019-01-02T10:54:03.516Z,1021.30
2019-01-02T10:55:03.462Z,1021.26
2019-01-02T10:56:03.404Z,1021.32
2019-01-02T10:57:03.375Z,1021.30
2019-01-02T10:58:03.298Z,1021.35
2019-01-02T10:59:03.235Z,1021.38
2019-01-02T11:00:03.183Z,1021.35
2019-01-02T11:01:03.124Z,1021.28
2019-01-02T11:02:03.093Z,1021.20
2019-01-02T11:03:03.009Z,1021.22
2019-01-02T11:04:02.955Z,1021.34
2019-01-02T11:05:02.900Z,1021.27
2019-01-02T11:06:02.843Z,1021.38
2019-01-02T11:07:02.811Z,1021.33
2019-01-02T11:08:02.735Z,1021.23
2019-01-02T11:09:02.677Z,1021.32
2019-01-02T11:10:02.622Z,1021.33
2019-01-02T11:11:02.563Z,1021.36
2019-01-02T11:12:02.550Z,1021.50
2019-01-02T11:13:02.449Z,1021.37
2019-01-02T11:14:02.395Z,1021.42
2019-01-02T11:15:02.346Z,1021.38
2019-01-02T11:16:02.281Z,1021.39
2019-01-02T11:17:02.261Z,1021.42
2019-01-02T11:18:02.199Z,1021.43
2019-01-02T11:19:02.117Z,1021.44
2019-01-02T11:20:02.059Z,1021.44
2019-01-02T11:21:02.004Z,1021.42
2019-01-02T11:22:01.949Z,1021.49
2019-01-02T11:23:01.920Z,1021.46
2019-01-02T11:24:01.838Z,1021.48
2019-01-02T11:25:01.776Z,1021.52
2019-01-02T11:26:01.723Z,1021.48
2019-01-02T11:27:01.669Z,1021.44
2019-01-02T11:28:01.633Z,1021.39
2019-01-02T11:29:01.557Z,1021.52
2019-01-02T11:30:01.502Z,1021.44
2019-01-02T11:31:01.442Z,1021.48
2019-01-02T11:32:01.390Z,1021.51
2019-01-02T11:33:01.366Z,1021.38
2019-01-02T11:34:01.277Z,1021.45
2019-01-02T11:35:01.221Z,1021.39
2019-01-02T11:36:01.164Z,1021.42
2019-01-02T11:37:01.109Z,1021.43
2019-01-02T11:38:01.075Z,1021.36
2019-01-02T11:39:00.998Z,1021.51
2019-01-02T11:40:00.940Z,1021.44
2019-01-02T11:41:00.884Z,1021.46
2019-01-02T11:42:00.828Z,1021.44
2019-01-02T11:43:00.795Z,1021.41
2019-01-02T11:44:00.715Z,1021.46
2019-01-02T11:45:00.660Z,1021.52
2019-01-02T11:46:00.599Z,1021.43
2019-01-02T11:47:00.548Z,1021.44
2019-01-02T11:48:00.517Z,1021.57
2019-01-02T11:49:00.437Z,1021.58
2019-01-02T11:50:00.377Z,1021.48
2019-01-02T11:51:00.324Z,1021.53
2019-01-02T11:52:00.266Z,1021.56
2019-01-02T11:53:00.262Z,1021.49
2019-01-02T11:54:00.159Z,1021.63
2019-01-02T11:55:00.167Z,1021.62
2019-01-02T11:56:00.041Z,1021.52
2019-01-02T11:56:59.986Z,1021.54
2019-01-02T11:57:59.930Z,1021.63
2019-01-02T11:58:59.898Z,1021.55
2019-01-02T11:59:59.819Z,1021.65
2019-01-02T12:00:59.766Z,1021.61
2019-01-02T12:01:59.711Z,1021.65
2019-01-02T12:02:59.646Z,1021.61
2019-01-02T12:03:59.625Z,1021.60
2019-01-02T12:04:59.538Z,1021.66